Aérodrome :
LOGIN :

S'inscrire | Disclaimer

   EN    FR    IT 

 










Légende :    VFR   VFR Marginal   IFR   IFR Intensif   IFR Très Intensif
Visi : 
Plafond : 
>= 8 km
>= 3000ft
5 à 8 km
1000 à 3000 ft
1500m à 5 km
500 à 1000 ft
800 à 1500m
200 à 500 ft
< 800m
< 200 ft
Symboles :   Orages  Brouillard  Fortes neiges  Fortes précipitations  Vent > 20 kt
SIGMETs :   Divers  Orages  Givrage  Turbulence  Onde Orograph.  Cendres Volcan.







- Altitude de l'aérodrome : 228 ft
- Code IATA : OPO


LPPR - Porto Fr. Sa Carneiro

DERNIER METAR :
  • 131530Z 26003KT 160V300 CAVOK 17/12 Q1023

METARs EXPIRÉS :
  • 131500Z 33005KT 290V010 CAVOK 17/11 Q1023
  • 131430Z 35005KT 310V040 CAVOK 16/11 Q1023
  • 131400Z 01006KT 340V050 CAVOK 17/09 Q1023
  • 131330Z 02006KT 340V060 CAVOK 17/09 Q1023
  • 131300Z 05006KT 320V100 CAVOK 17/09 Q1023

TAF TAF LPPR
Valide du 13 à 12h jusqu'au 14 à 12h UTC


131100Z 1312/1412 08007KT CAVOK
PROB30
TEMPO 1313/1317 34008KT
BECMG 1318/1320 12008KT
Pas de NOTAMs connus pour ce terrain.



MET'MAP, la Météo Aéronautique d'un coup d'oeil ! - Copyright ORBIFLY Décembre 2007 - Disclaimer

ORBIFLY MET'MAP TEAM :

Programmation & Développement : Alexandra Zaïnal
Conception & Développement : Baudouin d'Aumeries
Co-Programmation & Développement : Marc-Olivier Méhu
Soutien technique & logistique : Manuel Goepfert

Contact : metmap@orbifly.com




SOURCES & CREDITS :

   NOAA